Reinbeck, IA (50669)

8:43 AM CST on December 10, 2016 (GMT -0600)
NW Buckingham | | Change Station
Active Advisory: Winter Weather Advisory

Elev 949 ft 42.30 °N, 92.47 °W | Updated 14 seconds ago

Overcast
Overcast
18.9 °F
Feels Like 19 °F
N
0.0
Wind Variable Wind from East
Gusts 0.0 mph

Today
High -- | Low -- °F
--% Chance of Precip.
Yesterday
High -- | Low -- °F
Precip. -- in
Pressure 30.53 in
Visibility 10.0 miles
Clouds Overcast 1100 ft
Windchill 19 °F
Dew Point 16 °F
Humidity 87%
Rainfall 0.00 in
Snow Depth Not available.
7:28 AM 4:37 PM
Waxing Gibbous, 84% visible
METAR KALO 101354Z 01003KT 10SM OVC011 M08/M11 A3048 RMK AO2 SLP338 T10781106
Pressure 30.53 in
Visibility 10.0 miles
Clouds Overcast 1100 ft
Windchill 19 °F
Dew Point 16 °F
Humidity 87%
Rainfall 0.00 in
Snow Depth Not available.
7:28 AM 4:37 PM
Waxing Gibbous, 84% visible
METAR KALO 101354Z 01003KT 10SM OVC011 M08/M11 A3048 RMK AO2 SLP338 T10781106

10-Day Weather Forecast

Almanac

Astronomy

Dec. 10, 2016 Rise Set
Actual Time
Civil Twilight
Nautical Twilight
Astronomical Twilight
Moon
Length of Visible Light
Length of Day
Tomorrow will be .
, % of the Moon is Illuminated

Today's Extremes

State Highs State Lows

Community

WunderPhotos

Upload Photos

1,956,549 photos uploaded!

WunderBlog® & News

Nearby

Air Quality

  Air Quality AQ Index Pollutant
Not available.

Snow Depth

Station Depth Elevation

Earthquake Activity

City Distance Mag. Time & Date
Minimum magnitude displayed is 2.5.

Coastal Water Temperatures

Place Temperature

Stations

Nearby Weather Stations

Station Location Temp. Windchill Dew Point Humidity Wind Precip. Elev Updated Type
                   

Watches & Warnings

Winter Weather Advisory
Issued: 3:18 AM CST Dec. 10, 2016 – National Weather Service

... Winter Weather Advisory now in effect from 2 PM this afternoon
to 3 PM CST Sunday...

* timing... accumulating snow will reach Interstate 35 by around
midday today and the Waterloo area by mid-afternoon. Snow will
then end from west to east on Sunday afternoon.

* Storm total snow accumulations... total accumulations for the
event will range from 2 to 4 inches down toward Highway 30... up
to 6 to 8 inches around Mason City and Waterloo. Locally higher
amounts are likely.

* Winds/visibility... southeast winds of around 15 mph with higher
gusts are forecast this afternoon into tonight. Visibility
restrictions should vary from a few miles down to less than a mile
during periods of heavier snowfall. Winds will diminish by
Sunday morning and lessen the potential for visibility
restrictions.

* Impacts... the primary impacts will be hazardous travel
conditions due to reduced visibility and snow covered roads.

Precautionary/preparedness actions...

A Winter Weather Advisory for snow means that periods of snow
will cause primarily travel difficulties. Be prepared for snow
covered roads and limited visibilities and use caution while
driving.